createdAt,value
2024-02-11T00:02:15.034Z,9.95
2024-02-11T00:04:43.742Z,9.99
2024-02-11T00:07:12.581Z,10.04
2024-02-11T00:09:39.872Z,9.84
2024-02-11T00:12:08.661Z,9.87
2024-02-11T00:14:36.093Z,9.95
2024-02-11T00:17:03.580Z,9.95
2024-02-11T00:19:31.688Z,9.84
2024-02-11T00:21:59.025Z,9.98
2024-02-11T00:24:31.362Z,9.98
2024-02-11T00:26:59.026Z,9.94
2024-02-11T00:29:26.205Z,10.11
2024-02-11T00:31:53.464Z,9.94
2024-02-11T00:34:21.140Z,10.01
2024-02-11T00:36:48.492Z,10.06
2024-02-11T00:39:16.029Z,10.05
2024-02-11T00:41:44.099Z,10.15
2024-02-11T00:44:12.070Z,9.84
2024-02-11T00:46:39.473Z,9.97
2024-02-11T00:49:08.020Z,10.11
2024-02-11T00:51:35.356Z,10.18
2024-02-11T00:54:05.365Z,10.15
2024-02-11T00:56:33.180Z,10.12
2024-02-11T00:59:00.712Z,10.00
2024-02-11T01:01:28.008Z,9.95
2024-02-11T01:03:58.614Z,9.65
2024-02-11T01:06:26.504Z,9.72
2024-02-11T01:08:53.912Z,9.86
2024-02-11T01:11:21.612Z,9.82
2024-02-11T01:13:50.006Z,9.97
2024-02-11T01:16:17.301Z,10.09
2024-02-11T01:18:47.920Z,10.07
2024-02-11T01:21:15.381Z,10.07
2024-02-11T01:23:42.616Z,9.95
2024-02-11T01:26:10.435Z,9.89
2024-02-11T01:28:37.793Z,9.96
2024-02-11T01:31:05.081Z,9.80
2024-02-11T01:33:32.860Z,9.72
2024-02-11T01:36:00.221Z,9.49
2024-02-11T01:38:27.431Z,9.63
2024-02-11T01:40:55.048Z,9.66
2024-02-11T01:43:23.065Z,9.61
2024-02-11T01:45:50.306Z,9.54
2024-02-11T01:48:18.014Z,9.48
2024-02-11T01:50:45.454Z,9.46
2024-02-11T01:53:13.099Z,9.42
2024-02-11T01:55:42.268Z,9.28
2024-02-11T01:58:10.100Z,9.30
2024-02-11T02:00:38.458Z,9.38
2024-02-11T02:03:06.365Z,9.55
2024-02-11T02:05:33.650Z,9.50
2024-02-11T02:08:01.098Z,9.40
2024-02-11T02:10:28.665Z,9.33
2024-02-11T02:12:55.928Z,9.43
2024-02-11T02:15:27.345Z,9.46
2024-02-11T02:17:56.116Z,9.50
2024-02-11T02:20:23.473Z,9.48
2024-02-11T02:22:50.848Z,9.54
2024-02-11T02:25:18.366Z,9.30
2024-02-11T02:27:45.633Z,9.40
2024-02-11T02:30:13.752Z,9.41
2024-02-11T02:32:41.383Z,9.40
2024-02-11T02:35:08.832Z,9.36
2024-02-11T02:37:36.430Z,9.66
2024-02-11T02:40:04.783Z,9.14
2024-02-11T02:42:32.020Z,8.94
2024-02-11T02:44:59.261Z,9.02
2024-02-11T02:47:26.787Z,9.11
2024-02-11T02:49:53.910Z,9.19
2024-02-11T02:52:21.282Z,9.32
2024-02-11T02:54:49.255Z,8.98
2024-02-11T02:57:16.618Z,8.83
2024-02-11T02:59:43.943Z,8.98
2024-02-11T03:02:14.021Z,8.84
2024-02-11T03:04:42.052Z,8.53
2024-02-11T03:07:09.255Z,8.71
2024-02-11T03:09:36.777Z,8.84
2024-02-11T03:12:04.158Z,8.85
2024-02-11T03:14:32.592Z,8.71
2024-02-11T03:17:00.643Z,8.57
2024-02-11T03:19:27.974Z,8.76
2024-02-11T03:21:55.156Z,9.00
2024-02-11T03:24:22.854Z,9.17
2024-02-11T03:26:50.273Z,8.66
2024-02-11T03:29:21.491Z,8.74
2024-02-11T03:31:50.767Z,8.85
2024-02-11T03:34:18.520Z,8.89
2024-02-11T03:36:45.836Z,9.10
2024-02-11T03:39:13.938Z,9.15
2024-02-11T03:41:41.047Z,9.20
2024-02-11T03:44:08.466Z,9.26
2024-02-11T03:46:36.438Z,9.26
2024-02-11T03:49:03.911Z,9.18
2024-02-11T03:51:31.966Z,9.38
2024-02-11T03:54:03.452Z,9.26
2024-02-11T03:56:31.009Z,9.39
2024-02-11T03:58:58.737Z,9.35
2024-02-11T04:01:29.267Z,9.18
2024-02-11T04:03:56.929Z,9.15
2024-02-11T04:06:24.321Z,9.07
2024-02-11T04:08:51.669Z,8.83
2024-02-11T04:11:19.718Z,8.75
2024-02-11T04:13:47.203Z,8.94
2024-02-11T04:16:18.479Z,8.85
2024-02-11T04:18:49.735Z,8.79
2024-02-11T04:21:17.638Z,8.85
2024-02-11T04:23:51.215Z,8.89
2024-02-11T04:26:19.446Z,8.97
2024-02-11T04:28:49.931Z,9.09
2024-02-11T04:31:20.547Z,8.93
2024-02-11T04:33:48.628Z,8.79
2024-02-11T04:36:20.747Z,8.81
2024-02-11T04:38:49.278Z,8.84
2024-02-11T04:41:18.804Z,8.29
2024-02-11T04:43:50.461Z,8.48
2024-02-11T04:46:18.643Z,8.53
2024-02-11T04:48:46.511Z,8.18
2024-02-11T04:51:16.566Z,8.25
2024-02-11T04:54:14.619Z,8.72
2024-02-11T04:56:47.445Z,8.72
2024-02-11T04:59:16.662Z,7.94
2024-02-11T05:01:44.888Z,8.11
2024-02-11T05:04:12.406Z,8.15
2024-02-11T05:06:41.957Z,8.28
2024-02-11T05:09:09.742Z,8.33
2024-02-11T05:11:37.135Z,7.82
2024-02-11T05:14:04.570Z,8.01
2024-02-11T05:16:32.331Z,8.00
2024-02-11T05:19:00.902Z,7.83
2024-02-11T05:21:28.502Z,7.79
2024-02-11T05:23:56.414Z,7.91
2024-02-11T05:26:23.986Z,8.05
2024-02-11T05:28:51.461Z,8.05
2024-02-11T05:31:22.606Z,8.25
2024-02-11T05:33:52.878Z,8.05
2024-02-11T05:36:22.383Z,8.10
2024-02-11T05:38:49.679Z,8.20
2024-02-11T05:41:21.214Z,8.51
2024-02-11T05:43:50.635Z,8.35
2024-02-11T05:46:18.156Z,8.34
2024-02-11T05:48:46.862Z,8.39
2024-02-11T05:51:16.020Z,8.48
2024-02-11T05:53:43.456Z,8.52
2024-02-11T05:56:13.080Z,8.45
2024-02-11T05:58:41.978Z,8.29
2024-02-11T06:01:09.466Z,8.33
2024-02-11T06:03:37.652Z,8.38
2024-02-11T06:06:07.876Z,8.52
2024-02-11T06:08:37.473Z,8.51
2024-02-11T06:11:05.461Z,8.52
2024-02-11T06:13:32.754Z,8.65
2024-02-11T06:16:00.072Z,8.97
2024-02-11T06:18:28.141Z,8.90
2024-02-11T06:20:56.108Z,8.80
2024-02-11T06:23:25.057Z,8.83
2024-02-11T06:26:06.099Z,8.94
2024-02-11T06:28:43.021Z,8.93
2024-02-11T06:31:14.739Z,9.04
2024-02-11T06:33:43.000Z,9.10
2024-02-11T06:36:12.130Z,9.09
2024-02-11T06:38:41.997Z,8.88
2024-02-11T06:41:09.530Z,8.91
2024-02-11T06:43:37.368Z,9.06
2024-02-11T06:46:05.456Z,9.18
2024-02-11T06:48:32.874Z,9.16
2024-02-11T06:51:01.015Z,9.17
2024-02-11T06:53:29.744Z,9.01
2024-02-11T06:55:57.373Z,9.00
2024-02-11T06:58:25.131Z,9.05
2024-02-11T07:00:54.613Z,9.39
2024-02-11T07:03:25.037Z,9.23
2024-02-11T07:05:54.014Z,9.15
2024-02-11T07:08:22.660Z,9.19
2024-02-11T07:10:51.060Z,9.38
2024-02-11T07:13:18.931Z,9.42
2024-02-11T07:15:48.103Z,9.57
2024-02-11T07:18:15.856Z,9.19
2024-02-11T07:20:44.436Z,9.18
2024-02-11T07:23:12.131Z,9.22
2024-02-11T07:25:39.596Z,9.26
2024-02-11T07:28:07.386Z,9.34
2024-02-11T07:30:35.713Z,9.39
2024-02-11T07:33:03.210Z,9.48
2024-02-11T07:35:31.081Z,9.50
2024-02-11T07:37:58.668Z,9.65
2024-02-11T07:40:26.482Z,9.95
2024-02-11T07:42:54.878Z,9.93
2024-02-11T07:45:22.305Z,9.89
2024-02-11T07:47:50.651Z,10.05
2024-02-11T07:50:19.909Z,10.17
2024-02-11T07:52:48.980Z,10.34
2024-02-11T07:55:17.582Z,10.33
2024-02-11T07:57:48.612Z,10.47
2024-02-11T08:00:21.440Z,10.64
2024-02-11T08:02:52.724Z,10.76
2024-02-11T08:05:23.564Z,10.89
2024-02-11T08:07:53.941Z,10.10
2024-02-11T08:10:23.263Z,10.01
2024-02-11T08:12:53.933Z,10.29
2024-02-11T08:15:22.657Z,10.44
2024-02-11T08:17:50.964Z,10.64
2024-02-11T08:20:22.325Z,10.93
2024-02-11T08:22:55.659Z,11.18
2024-02-11T08:25:24.240Z,11.43
2024-02-11T08:27:52.326Z,11.35
2024-02-11T08:30:50.467Z,11.45
2024-02-11T08:33:35.763Z,11.59
2024-02-11T08:36:03.438Z,11.76
2024-02-11T08:38:36.505Z,11.87
2024-02-11T08:41:05.054Z,12.00
2024-02-11T08:43:33.218Z,12.13
2024-02-11T08:46:05.182Z,12.24
2024-02-11T08:48:34.368Z,12.18
2024-02-11T08:51:02.766Z,12.23
2024-02-11T08:53:32.047Z,12.39
2024-02-11T08:56:00.147Z,12.44
2024-02-11T08:58:29.357Z,12.52
2024-02-11T09:00:57.465Z,12.58
2024-02-11T09:03:25.422Z,12.61
2024-02-11T09:05:53.138Z,12.63
2024-02-11T09:08:26.654Z,12.77
2024-02-11T09:10:55.157Z,12.92
2024-02-11T09:13:22.663Z,12.92
2024-02-11T09:15:50.645Z,12.93
2024-02-11T09:18:21.507Z,13.04
2024-02-11T09:20:49.113Z,13.05
2024-02-11T09:23:16.671Z,13.16
2024-02-11T09:25:44.454Z,13.16
2024-02-11T09:28:12.049Z,13.28
2024-02-11T09:30:43.688Z,13.44
2024-02-11T09:33:11.616Z,13.51
2024-02-11T09:35:39.484Z,13.59
2024-02-11T09:38:07.097Z,13.69
2024-02-11T09:40:36.550Z,13.61
2024-02-11T09:43:05.037Z,13.69
2024-02-11T09:45:34.228Z,13.76
2024-02-11T09:48:06.543Z,13.83
2024-02-11T09:50:36.566Z,13.85
2024-02-11T09:53:04.722Z,13.99
2024-02-11T09:55:32.847Z,14.09
2024-02-11T09:58:00.692Z,14.07
2024-02-11T10:00:28.682Z,13.96
2024-02-11T10:02:59.473Z,14.14
2024-02-11T10:05:31.595Z,14.16
2024-02-11T10:08:01.357Z,14.16
2024-02-11T10:10:29.491Z,14.07
2024-02-11T10:12:58.672Z,14.26
2024-02-11T10:15:26.932Z,14.22
2024-02-11T10:17:54.445Z,14.38
2024-02-11T10:20:21.949Z,14.43
2024-02-11T10:22:50.458Z,14.18
2024-02-11T10:25:18.934Z,14.20
2024-02-11T10:27:47.015Z,14.26
2024-02-11T10:30:15.324Z,14.24
2024-02-11T10:32:43.499Z,14.23
2024-02-11T10:35:13.006Z,14.26
2024-02-11T10:37:49.555Z,14.28
2024-02-11T10:40:21.015Z,14.35
2024-02-11T10:42:52.095Z,14.57
2024-02-11T10:45:19.752Z,14.78
2024-02-11T10:47:47.472Z,15.38
2024-02-11T10:50:15.306Z,15.65
2024-02-11T10:52:44.736Z,16.23
2024-02-11T10:55:14.319Z,16.14
2024-02-11T10:57:56.195Z,15.89
2024-02-11T11:00:28.817Z,15.48
2024-02-11T11:03:01.499Z,15.20
2024-02-11T11:05:33.855Z,15.11
2024-02-11T11:08:03.181Z,14.92
2024-02-11T11:10:39.333Z,14.80
2024-02-11T11:13:10.760Z,14.95
2024-02-11T11:15:39.373Z,14.85
2024-02-11T11:18:12.024Z,14.73
2024-02-11T11:20:56.653Z,14.82
2024-02-11T11:23:30.577Z,15.26
2024-02-11T11:25:58.358Z,15.41
2024-02-11T11:28:33.165Z,15.28
2024-02-11T11:31:00.621Z,15.27
2024-02-11T11:33:33.790Z,15.17
2024-02-11T11:36:05.618Z,15.37
2024-02-11T11:38:34.952Z,15.53
2024-02-11T11:41:03.923Z,15.56
2024-02-11T11:43:34.578Z,15.62
2024-02-11T11:46:06.453Z,15.53
2024-02-11T11:48:37.646Z,15.60
2024-02-11T11:51:13.448Z,15.92
2024-02-11T11:53:45.097Z,15.81
2024-02-11T11:56:15.753Z,15.67
2024-02-11T11:58:44.528Z,15.77
2024-02-11T12:01:12.307Z,15.72
2024-02-11T12:03:41.173Z,15.61
2024-02-11T12:06:10.119Z,15.61
2024-02-11T12:08:39.137Z,15.58
2024-02-11T12:11:16.831Z,15.68
2024-02-11T12:13:44.931Z,15.77
2024-02-11T12:16:17.304Z,15.83
2024-02-11T12:18:46.072Z,15.85
2024-02-11T12:21:15.275Z,15.64
2024-02-11T12:23:43.181Z,15.68
2024-02-11T12:26:10.787Z,15.60
2024-02-11T12:28:40.911Z,15.79
2024-02-11T12:31:15.812Z,15.82
2024-02-11T12:33:45.722Z,15.57
2024-02-11T12:36:15.048Z,15.57
2024-02-11T12:38:47.529Z,15.72
2024-02-11T12:41:17.387Z,15.62
2024-02-11T12:43:46.494Z,15.50
2024-02-11T12:46:14.179Z,15.51
2024-02-11T12:48:44.351Z,15.69
2024-02-11T12:51:15.201Z,16.08
2024-02-11T12:53:43.878Z,16.05
2024-02-11T12:56:12.481Z,16.04
2024-02-11T12:58:46.694Z,15.87
2024-02-11T13:01:16.704Z,15.51
2024-02-11T13:03:44.916Z,15.28
2024-02-11T13:06:12.757Z,15.19
2024-02-11T13:08:40.991Z,15.13
2024-02-11T13:11:11.782Z,15.11
2024-02-11T13:13:40.488Z,15.10
2024-02-11T13:16:12.148Z,15.04
2024-02-11T13:18:40.547Z,14.95
2024-02-11T13:21:08.674Z,14.92
2024-02-11T13:23:39.934Z,14.84
2024-02-11T13:26:07.506Z,14.69
2024-02-11T13:28:35.193Z,14.97
2024-02-11T13:31:10.726Z,15.23
2024-02-11T13:33:51.524Z,15.28
2024-02-11T13:36:20.133Z,15.16
2024-02-11T13:38:47.553Z,15.03
2024-02-11T13:41:15.316Z,15.00
2024-02-11T13:43:45.087Z,14.91
2024-02-11T13:46:15.194Z,15.02
2024-02-11T13:48:44.324Z,15.04
2024-02-11T13:51:12.603Z,15.20
2024-02-11T13:53:41.995Z,15.29
2024-02-11T13:56:13.958Z,15.40
2024-02-11T13:58:44.988Z,15.27
2024-02-11T14:01:15.794Z,15.28
2024-02-11T14:03:45.071Z,15.48
2024-02-11T14:06:17.302Z,15.63
2024-02-11T14:08:49.238Z,15.37
2024-02-11T14:11:17.755Z,15.47
2024-02-11T14:13:52.801Z,15.54
2024-02-11T14:16:25.640Z,15.67
2024-02-11T14:18:55.762Z,15.67
2024-02-11T14:21:39.141Z,15.77
2024-02-11T14:24:34.633Z,15.66
2024-02-11T14:27:05.190Z,15.73
2024-02-11T14:29:34.367Z,15.75
2024-02-11T14:32:11.319Z,15.71
2024-02-11T14:34:41.343Z,15.64
2024-02-11T14:37:08.998Z,15.59
2024-02-11T14:39:36.420Z,15.45
2024-02-11T14:42:07.180Z,15.06
2024-02-11T14:44:35.568Z,14.79
2024-02-11T14:50:10.889Z,14.41
2024-02-11T14:52:39.073Z,14.23
2024-02-11T14:55:08.094Z,14.15
2024-02-11T14:57:36.897Z,14.01
2024-02-11T15:00:14.382Z,14.02
2024-02-11T15:02:44.678Z,14.04
2024-02-11T15:05:16.414Z,14.07
2024-02-11T15:07:44.936Z,14.05
2024-02-11T15:10:14.556Z,14.09
2024-02-11T15:12:42.033Z,14.18
2024-02-11T15:15:09.784Z,14.21
2024-02-11T15:17:37.931Z,14.08
2024-02-11T15:20:06.188Z,13.96
2024-02-11T15:22:34.074Z,13.94
2024-02-11T15:25:01.562Z,13.99
2024-02-11T15:27:31.492Z,13.82
2024-02-11T15:30:07.977Z,13.76
2024-02-11T15:32:36.154Z,13.79
2024-02-11T15:35:07.385Z,13.77
2024-02-11T15:37:35.584Z,13.68
2024-02-11T15:43:16.130Z,13.62
2024-02-11T15:45:43.942Z,13.74
2024-02-11T15:48:14.041Z,13.75
2024-02-11T15:50:42.224Z,13.41
2024-02-11T15:53:09.727Z,13.18
2024-02-11T15:55:37.581Z,13.07
2024-02-11T15:58:05.841Z,13.29
2024-02-11T16:04:44.268Z,13.26
2024-02-11T16:07:13.610Z,13.25
2024-02-11T16:09:52.890Z,13.29
2024-02-11T16:12:20.852Z,13.11
2024-02-11T16:14:48.259Z,12.98
2024-02-11T16:17:15.763Z,12.88
2024-02-11T16:19:43.699Z,12.95
2024-02-11T16:22:11.157Z,12.84
2024-02-11T16:24:38.536Z,12.71
2024-02-11T16:27:06.518Z,12.75
2024-02-11T16:30:06.958Z,12.72
2024-02-11T16:32:37.677Z,12.84
2024-02-11T16:35:06.723Z,12.23
2024-02-11T16:37:34.245Z,12.33
2024-02-11T16:40:02.560Z,12.17
2024-02-11T16:42:30.294Z,12.19
2024-02-11T16:45:01.736Z,11.84
2024-02-11T16:47:30.845Z,11.47
2024-02-11T16:49:59.150Z,11.62
2024-02-11T16:52:28.351Z,11.68
2024-02-11T16:54:56.988Z,11.83
2024-02-11T16:57:24.422Z,11.96
2024-02-11T16:59:52.238Z,11.97
2024-02-11T17:02:20.302Z,12.03
2024-02-11T17:04:50.336Z,12.09
2024-02-11T17:07:17.934Z,12.04
2024-02-11T17:09:51.111Z,12.17
2024-02-11T17:12:19.564Z,11.92
2024-02-11T17:14:47.425Z,12.00
2024-02-11T17:17:16.089Z,12.11
2024-02-11T17:19:45.276Z,12.19
2024-02-11T17:22:14.878Z,12.33
2024-02-11T17:24:42.480Z,12.37
2024-02-11T17:27:10.332Z,12.22
2024-02-11T17:29:40.455Z,12.18
2024-02-11T17:32:17.160Z,12.08
2024-02-11T17:34:53.727Z,12.05
2024-02-11T17:37:21.221Z,12.02
2024-02-11T17:39:50.585Z,12.21
2024-02-11T17:42:18.574Z,12.12
2024-02-11T17:44:46.111Z,12.11
2024-02-11T17:47:14.703Z,11.93
2024-02-11T17:49:43.650Z,11.95
2024-02-11T17:52:11.189Z,11.86
2024-02-11T17:54:41.701Z,12.13
2024-02-11T17:57:09.796Z,12.19
2024-02-11T17:59:38.863Z,11.97
2024-02-11T18:02:06.717Z,12.15
2024-02-11T18:04:34.666Z,12.19
2024-02-11T18:07:02.261Z,11.89
2024-02-11T18:09:30.280Z,11.92
2024-02-11T18:11:58.042Z,11.84
2024-02-11T18:14:25.745Z,11.81
2024-02-11T18:16:55.042Z,11.69
2024-02-11T18:19:22.865Z,11.76
2024-02-11T18:21:53.201Z,11.71
2024-02-11T18:24:21.118Z,11.48
2024-02-11T18:26:50.524Z,11.19
2024-02-11T18:29:18.656Z,11.29
2024-02-11T18:31:48.085Z,11.22
2024-02-11T18:34:16.549Z,11.24
2024-02-11T18:36:46.704Z,11.22
2024-02-11T18:39:16.055Z,11.39
2024-02-11T18:41:44.430Z,11.56
2024-02-11T18:44:12.307Z,11.48
2024-02-11T18:46:40.110Z,11.30
2024-02-11T18:49:07.915Z,10.99
2024-02-11T18:51:38.716Z,10.78
2024-02-11T18:54:08.942Z,10.81
2024-02-11T18:56:38.102Z,10.79
2024-02-11T18:59:09.198Z,10.97
2024-02-11T19:01:38.162Z,11.01
2024-02-11T19:04:06.023Z,11.04
2024-02-11T19:06:34.761Z,10.99
2024-02-11T19:09:02.535Z,10.97
2024-02-11T19:11:29.962Z,10.83
2024-02-11T19:14:01.725Z,10.96
2024-02-11T19:16:29.741Z,10.95
2024-02-11T19:18:59.691Z,10.93
2024-02-11T19:21:27.234Z,10.85
2024-02-11T19:23:55.093Z,10.87
2024-02-11T19:26:22.575Z,10.45
2024-02-11T19:28:50.129Z,10.57
2024-02-11T19:31:18.977Z,10.67
2024-02-11T19:34:06.307Z,10.51
2024-02-11T19:36:35.216Z,10.69
2024-02-11T19:39:03.336Z,10.53
2024-02-11T19:41:31.102Z,10.47
2024-02-11T19:43:59.449Z,10.46
2024-02-11T19:46:27.331Z,10.52
2024-02-11T19:48:57.123Z,10.68
2024-02-11T19:51:27.667Z,10.43
2024-02-11T19:53:54.940Z,10.47
2024-02-11T19:56:22.460Z,10.04
2024-02-11T19:58:51.426Z,10.04
2024-02-11T20:01:19.026Z,9.93
2024-02-11T20:03:50.696Z,10.02
2024-02-11T20:06:18.217Z,9.93
2024-02-11T20:08:48.130Z,9.91
2024-02-11T20:11:16.825Z,10.00
2024-02-11T20:13:44.491Z,10.22
2024-02-11T20:16:13.791Z,10.10
2024-02-11T20:18:41.973Z,10.07
2024-02-11T20:21:10.842Z,10.09
2024-02-11T20:23:38.658Z,10.11
2024-02-11T20:26:09.158Z,9.98
2024-02-11T20:28:36.753Z,9.94
2024-02-11T20:31:04.250Z,9.53
2024-02-11T20:33:32.098Z,9.51
2024-02-11T20:36:00.140Z,9.60
2024-02-11T20:38:28.391Z,9.46
2024-02-11T20:41:00.510Z,9.35
2024-02-11T20:43:28.171Z,9.24
2024-02-11T20:45:55.992Z,9.09
2024-02-11T20:48:25.529Z,9.14
2024-02-11T20:50:53.171Z,9.04
2024-02-11T20:53:21.921Z,9.04
2024-02-11T20:55:52.639Z,8.98
2024-02-11T20:58:22.910Z,8.95
2024-02-11T21:00:51.175Z,8.89
2024-02-11T21:03:18.690Z,9.00
2024-02-11T21:05:46.372Z,9.01
2024-02-11T21:08:15.219Z,8.99
2024-02-11T21:10:42.680Z,8.99
2024-02-11T21:13:30.942Z,9.08
2024-02-11T21:15:58.878Z,8.92
2024-02-11T21:18:26.355Z,8.79
2024-02-11T21:20:53.815Z,8.70
2024-02-11T21:23:21.645Z,8.47
2024-02-11T21:25:50.087Z,8.42
2024-02-11T21:28:17.504Z,8.58
2024-02-11T21:30:48.696Z,8.63
2024-02-11T21:33:18.955Z,8.59
2024-02-11T21:35:46.906Z,8.76
2024-02-11T21:38:14.494Z,8.76
2024-02-11T21:40:42.149Z,8.77
2024-02-11T21:43:12.770Z,8.76
2024-02-11T21:45:43.121Z,8.59
2024-02-11T21:48:11.721Z,8.68
2024-02-11T21:50:39.319Z,8.81
2024-02-11T21:53:10.840Z,8.80
2024-02-11T21:55:39.185Z,8.90
2024-02-11T21:58:06.603Z,8.99
2024-02-11T22:00:33.966Z,9.02
2024-02-11T22:03:08.665Z,8.83
2024-02-11T22:05:37.861Z,8.82
2024-02-11T22:08:09.188Z,8.52
2024-02-11T22:10:36.606Z,8.53
2024-02-11T22:13:06.357Z,8.55
2024-02-11T22:15:34.342Z,8.65
2024-02-11T22:18:03.666Z,8.57
2024-02-11T22:20:31.545Z,8.63
2024-02-11T22:23:00.042Z,8.55
2024-02-11T22:25:27.437Z,8.73
2024-02-11T22:28:15.232Z,8.63
2024-02-11T22:30:42.964Z,8.69
2024-02-11T22:33:12.633Z,8.63
2024-02-11T22:35:40.836Z,8.97
2024-02-11T22:38:09.789Z,9.12
2024-02-11T22:40:37.232Z,9.12
2024-02-11T22:43:06.553Z,9.03
2024-02-11T22:45:35.126Z,9.00
2024-02-11T22:48:04.665Z,9.10
2024-02-11T22:50:32.518Z,8.92
2024-02-11T22:53:00.444Z,8.75
2024-02-11T22:55:27.808Z,8.51
2024-02-11T22:57:57.099Z,8.68
2024-02-11T23:00:37.036Z,8.73
2024-02-11T23:03:06.220Z,8.66
2024-02-11T23:05:38.864Z,8.51
2024-02-11T23:08:09.077Z,8.70
2024-02-11T23:10:38.002Z,8.93
2024-02-11T23:13:05.502Z,8.89
2024-02-11T23:15:34.016Z,8.83
2024-02-11T23:18:21.468Z,8.67
2024-02-11T23:20:51.194Z,8.79
2024-02-11T23:23:19.263Z,8.79
2024-02-11T23:25:46.972Z,8.67
2024-02-11T23:28:20.634Z,8.64
2024-02-11T23:30:49.933Z,8.75
2024-02-11T23:33:18.222Z,9.08
2024-02-11T23:35:46.854Z,9.05
2024-02-11T23:38:14.849Z,8.60
2024-02-11T23:40:46.916Z,8.29
2024-02-11T23:43:14.616Z,8.33
2024-02-11T23:45:42.829Z,8.31
2024-02-11T23:48:10.524Z,8.37
2024-02-11T23:50:39.133Z,8.19
2024-02-11T23:53:08.370Z,8.05
2024-02-11T23:55:36.662Z,7.82
2024-02-11T23:58:05.905Z,7.69
